Time;durP1;ratioP1;P1;durP2;ratioP2;P2;SDS_P1;SDS_P2;PMS_P1;PMS_P2;Temp;Humidity;BMP_temperature;BMP_pressure;BME280_temperature;BME280_humidity;BME280_pressure;Samples;Min_cycle;Max_cycle;Signal;HPM_P1;HPM_P2
2024/04/14 00:02:04;;;;;;;4.75;2.00;;;;;;;;;;6608074;26;20021;-82
2024/04/14 00:05:07;;;;;;;3.55;1.95;;;;;;;;;;6611073;26;20041;-83
2024/04/14 00:08:09;;;;;;;4.45;2.30;;;;;;;;;;6602037;26;21180;-82
2024/04/14 00:11:11;;;;;;;3.60;2.00;;;;;;;;;;6602490;26;20010;-82
2024/04/14 00:14:15;;;;;;;3.53;2.20;;;;;;;;;;6613346;26;20409;-82
2024/04/14 00:17:18;;;;;;;4.70;2.60;;;;;;;;;;6610215;26;20551;-83
2024/04/14 00:20:22;;;;;;;3.58;2.33;;;;;;;;;;6594221;26;20025;-82
2024/04/14 00:23:25;;;;;;;2.83;2.00;;;;;;;;;;6608083;26;20009;-82
2024/04/14 00:26:27;;;;;;;2.10;1.85;;;;;;;;;;6614583;26;20010;-82
2024/04/14 00:29:34;;;;;;;2.85;2.17;;;;;;;;;;6612676;26;20328;-82
2024/04/14 00:32:36;;;;;;;2.97;1.90;;;;;;;;;;6607306;26;20021;-82
2024/04/14 00:35:39;;;;;;;4.65;2.25;;;;;;;;;;6605491;26;20342;-82
2024/04/14 00:38:41;;;;;;;4.97;2.58;;;;;;;;;;6600227;26;20010;-82
2024/04/14 00:41:44;;;;;;;2.80;2.08;;;;;;;;;;6603690;26;20006;-82
2024/04/14 00:44:46;;;;;;;3.37;1.87;;;;;;;;;;6606696;26;19997;-82
2024/04/14 00:47:48;;;;;;;4.47;2.30;;;;;;;;;;6607565;26;20060;-82
2024/04/14 00:50:51;;;;;;;2.80;1.90;;;;;;;;;;6609696;26;20017;-81
2024/04/14 00:53:54;;;;;;;2.88;2.00;;;;;;;;;;6603491;26;20665;-82
2024/04/14 00:56:57;;;;;;;4.72;2.17;;;;;;;;;;6599691;26;20002;-82
2024/04/14 01:00:01;;;;;;;5.78;2.50;;;;;;;;;;6579943;26;20019;-82
2024/04/14 01:03:03;;;;;;;3.85;2.28;;;;;;;;;;6605166;26;20030;-83
2024/04/14 01:06:06;;;;;;;6.32;2.38;;;;;;;;;;6598060;26;20010;-81
2024/04/14 01:09:09;;;;;;;3.13;1.90;;;;;;;;;;6601569;26;20013;-81
2024/04/14 01:12:11;;;;;;;3.88;2.08;;;;;;;;;;6595697;26;20012;-82
2024/04/14 01:15:13;;;;;;;3.30;2.33;;;;;;;;;;6600467;26;20010;-82
2024/04/14 01:18:16;;;;;;;5.30;2.33;;;;;;;;;;6592717;26;20353;-82
2024/04/14 01:21:18;;;;;;;2.47;2.08;;;;;;;;;;6613359;26;20017;-82
2024/04/14 01:24:22;;;;;;;3.80;2.42;;;;;;;;;;6599414;26;20005;-82
2024/04/14 01:27:25;;;;;;;;;;;;;;;;;;6604235;26;20013;-82
2024/04/14 01:30:27;;;;;;;4.55;2.10;;;;;;;;;;6606847;26;19933;-82
2024/04/14 01:33:30;;;;;;;;;;;;;;;;;;6607084;26;20037;-82
2024/04/14 01:36:33;;;;;;;4.07;2.50;;;;;;;;;;6607798;26;20370;-82
2024/04/14 01:39:36;;;;;;;5.90;2.80;;;;;;;;;;6602820;26;20006;-83
2024/04/14 01:42:40;;;;;;;5.28;2.70;;;;;;;;;;6604381;26;20006;-83
2024/04/14 01:45:42;;;;;;;5.63;2.88;;;;;;;;;;6606795;26;20056;-82
2024/04/14 01:48:44;;;;;;;3.17;2.45;;;;;;;;;;6598727;26;20009;-82
2024/04/14 01:51:47;;;;;;;4.60;2.40;;;;;;;;;;6601208;26;20005;-81
2024/04/14 01:54:49;;;;;;;4.75;2.63;;;;;;;;;;6610701;26;20001;-82
2024/04/14 01:57:51;;;;;;;3.47;2.30;;;;;;;;;;6602398;26;20032;-82
2024/04/14 02:00:54;;;;;;;3.47;2.38;;;;;;;;;;6607111;26;20458;-82
2024/04/14 02:03:57;;;;;;;6.55;2.80;;;;;;;;;;6593305;26;20042;-82
2024/04/14 02:06:59;;;;;;;5.22;2.80;;;;;;;;;;6602927;26;20078;-82
2024/04/14 02:10:02;;;;;;;6.68;2.42;;;;;;;;;;6592952;26;20005;-81
2024/04/14 02:13:05;;;;;;;3.10;2.40;;;;;;;;;;6599415;26;20084;-82
2024/04/14 02:16:08;;;;;;;3.15;2.30;;;;;;;;;;6620958;26;20321;-82
2024/04/14 02:19:10;;;;;;;3.95;2.13;;;;;;;;;;6607967;26;20006;-82
2024/04/14 02:22:13;;;;;;;2.53;2.10;;;;;;;;;;6597963;26;20065;-82
2024/04/14 02:25:15;;;;;;;4.32;2.08;;;;;;;;;;6613420;26;20088;-82
2024/04/14 02:28:18;;;;;;;2.38;1.92;;;;;;;;;;6605336;26;20382;-81
2024/04/14 02:31:21;;;;;;;4.35;1.70;;;;;;;;;;6599344;26;20652;-81
2024/04/14 02:34:23;;;;;;;3.28;1.70;;;;;;;;;;6604144;26;20076;-81
2024/04/14 02:37:25;;;;;;;3.40;1.88;;;;;;;;;;6605567;26;20099;-82
2024/04/14 02:40:28;;;;;;;;;;;;;;;;;;6597887;26;20355;-82
2024/04/14 02:43:35;;;;;;;3.03;1.48;;;;;;;;;;6603235;26;20293;-82
2024/04/14 02:46:37;;;;;;;2.42;1.52;;;;;;;;;;6609270;26;20005;-81
2024/04/14 02:49:40;;;;;;;1.38;1.10;;;;;;;;;;6608602;26;20740;-81
2024/04/14 02:52:42;;;;;;;1.43;1.10;;;;;;;;;;6601844;26;20415;-81
2024/04/14 02:55:44;;;;;;;2.50;1.33;;;;;;;;;;6610125;26;20541;-82
2024/04/14 02:58:46;;;;;;;3.60;2.17;;;;;;;;;;6630485;26;20520;-81
2024/04/14 03:01:48;;;;;;;2.87;1.23;;;;;;;;;;6602474;26;20005;-80
2024/04/14 03:04:51;;;;;;;4.20;1.40;;;;;;;;;;6601313;26;20013;-81
2024/04/14 03:07:53;;;;;;;1.63;1.17;;;;;;;;;;6597641;26;20503;-81
2024/04/14 03:10:57;;;;;;;4.40;1.20;;;;;;;;;;6579734;26;20020;-81
2024/04/14 03:13:59;;;;;;;2.45;1.00;;;;;;;;;;6597711;26;20462;-82
2024/04/14 03:17:01;;;;;;;2.50;1.00;;;;;;;;;;6602836;26;20005;-82
2024/04/14 03:20:05;;;;;;;2.30;1.10;;;;;;;;;;6613246;26;20010;-81
2024/04/14 03:23:07;;;;;;;2.78;1.00;;;;;;;;;;6599242;26;20020;-82
2024/04/14 03:26:09;;;;;;;1.70;0.97;;;;;;;;;;6596387;26;20014;-81
2024/04/14 03:29:12;;;;;;;1.80;1.10;;;;;;;;;;6607699;26;20355;-82
2024/04/14 03:32:15;;;;;;;2.40;1.63;;;;;;;;;;6600946;26;20074;-82
2024/04/14 03:35:17;;;;;;;1.45;1.10;;;;;;;;;;6601119;26;20013;-82
2024/04/14 03:38:19;;;;;;;1.35;1.00;;;;;;;;;;6596014;26;20006;-82
2024/04/14 03:41:23;;;;;;;1.80;1.23;;;;;;;;;;6597420;26;20082;-83
2024/04/14 03:44:29;;;;;;;2.35;1.10;;;;;;;;;;6613549;26;19998;-82
2024/04/14 03:47:32;;;;;;;2.15;1.40;;;;;;;;;;6620213;26;20409;-82
2024/04/14 03:50:37;;;;;;;3.35;1.40;;;;;;;;;;6598161;26;20049;-82
2024/04/14 03:53:40;;;;;;;2.92;1.08;;;;;;;;;;6609361;26;20001;-83
2024/04/14 03:56:42;;;;;;;2.58;1.05;;;;;;;;;;6601291;26;20021;-82
2024/04/14 03:59:45;;;;;;;2.20;1.27;;;;;;;;;;6617515;26;20079;-82
2024/04/14 04:02:47;;;;;;;2.67;1.15;;;;;;;;;;6605669;26;20023;-83
2024/04/14 04:05:56;;;;;;;1.97;1.30;;;;;;;;;;6596302;26;20082;-82
2024/04/14 04:08:58;;;;;;;3.75;1.20;;;;;;;;;;6616777;26;20017;-82
2024/04/14 04:12:01;;;;;;;3.60;1.40;;;;;;;;;;6604644;26;20021;-83
2024/04/14 04:15:03;;;;;;;2.28;1.20;;;;;;;;;;6607403;26;20083;-83
2024/04/14 04:18:05;;;;;;;3.20;1.30;;;;;;;;;;6575910;26;20024;-82
2024/04/14 04:21:08;;;;;;;2.67;1.23;;;;;;;;;;6595570;26;20339;-83
2024/04/14 04:24:11;;;;;;;1.50;1.17;;;;;;;;;;6599981;26;20465;-82
2024/04/14 04:27:13;;;;;;;3.93;1.40;;;;;;;;;;6598958;26;20013;-83
2024/04/14 04:30:16;;;;;;;2.93;1.40;;;;;;;;;;6602644;26;20017;-82
2024/04/14 04:33:19;;;;;;;2.58;1.10;;;;;;;;;;6586269;26;20042;-81
2024/04/14 04:36:22;;;;;;;3.33;1.38;;;;;;;;;;6598809;26;20423;-83
2024/04/14 04:39:24;;;;;;;3.73;1.40;;;;;;;;;;6578052;26;20661;-83
2024/04/14 04:42:26;;;;;;;2.37;1.33;;;;;;;;;;6580034;26;20857;-83
2024/04/14 04:45:29;;;;;;;1.67;1.13;;;;;;;;;;6604133;26;20431;-83
2024/04/14 04:48:31;;;;;;;2.83;1.67;;;;;;;;;;6601475;26;20988;-82
2024/04/14 04:51:34;;;;;;;4.65;1.40;;;;;;;;;;6600846;26;20009;-82
2024/04/14 04:54:36;;;;;;;2.07;1.40;;;;;;;;;;6599402;26;20009;-82
2024/04/14 04:57:38;;;;;;;3.75;1.42;;;;;;;;;;6576340;26;20072;-82
2024/04/14 05:00:50;;;;;;;2.97;1.43;;;;;;;;;;6587965;26;20018;-82
2024/04/14 05:03:52;;;;;;;2.92;1.08;;;;;;;;;;6587795;26;20033;-82
2024/04/14 05:06:55;;;;;;;6.63;1.77;;;;;;;;;;6590711;26;20002;-82
2024/04/14 05:09:57;;;;;;;3.67;1.47;;;;;;;;;;6598393;26;20006;-82
2024/04/14 05:13:00;;;;;;;1.92;1.40;;;;;;;;;;6603993;26;20500;-82
2024/04/14 05:16:03;;;;;;;1.67;1.20;;;;;;;;;;6607655;26;20001;-82
2024/04/14 05:19:06;;;;;;;2.70;1.38;;;;;;;;;;6577420;26;20015;-82
2024/04/14 05:22:08;;;;;;;3.78;1.40;;;;;;;;;;6603611;26;20045;-83
2024/04/14 05:25:10;;;;;;;3.13;1.20;;;;;;;;;;6589715;26;20009;-81
2024/04/14 05:28:13;;;;;;;4.60;1.30;;;;;;;;;;6628507;26;20001;-83
2024/04/14 05:31:15;;;;;;;3.03;1.23;;;;;;;;;;6599350;26;20005;-83
2024/04/14 05:34:18;;;;;;;4.03;1.17;;;;;;;;;;6607978;26;20005;-82
2024/04/14 05:37:20;;;;;;;2.45;1.35;;;;;;;;;;6605544;26;20005;-82
2024/04/14 05:40:22;;;;;;;2.67;1.20;;;;;;;;;;6601755;26;20367;-82
2024/04/14 05:43:24;;;;;;;1.70;1.23;;;;;;;;;;6603395;26;20078;-82
2024/04/14 05:46:26;;;;;;;4.17;1.40;;;;;;;;;;6593603;26;20018;-81
2024/04/14 05:49:29;;;;;;;3.00;1.40;;;;;;;;;;6613786;26;20055;-81
2024/04/14 05:52:31;;;;;;;3.80;1.40;;;;;;;;;;6582525;26;20018;-83
2024/04/14 05:55:33;;;;;;;2.42;1.17;;;;;;;;;;6602333;26;20016;-83
2024/04/14 05:58:35;;;;;;;3.10;1.37;;;;;;;;;;6613089;26;20009;-82
2024/04/14 06:01:38;;;;;;;2.53;1.10;;;;;;;;;;6573638;26;20086;-82
2024/04/14 06:04:40;;;;;;;2.80;1.10;;;;;;;;;;6602539;26;20056;-82
2024/04/14 06:07:46;;;;;;;2.90;1.27;;;;;;;;;;6596376;26;20024;-82
2024/04/14 06:10:48;;;;;;;5.82;1.20;;;;;;;;;;6615532;26;20025;-82
2024/04/14 06:13:50;;;;;;;3.17;1.27;;;;;;;;;;6595882;26;20013;-82
2024/04/14 06:16:54;;;;;;;1.80;1.00;;;;;;;;;;6603567;26;20025;-82
2024/04/14 06:19:58;;;;;;;3.28;1.33;;;;;;;;;;6608265;26;20351;-82
2024/04/14 06:23:01;;;;;;;1.35;1.10;;;;;;;;;;6608300;26;20340;-82
2024/04/14 06:26:04;;;;;;;4.13;1.30;;;;;;;;;;6598067;26;20006;-83
2024/04/14 06:29:06;;;;;;;2.35;1.20;;;;;;;;;;6609643;26;20008;-82
2024/04/14 06:32:08;;;;;;;3.20;1.10;;;;;;;;;;6607312;26;20009;-82
2024/04/14 06:35:12;;;;;;;2.78;1.23;;;;;;;;;;6599511;26;20083;-83
2024/04/14 06:38:14;;;;;;;2.67;1.45;;;;;;;;;;6600581;26;20016;-83
2024/04/14 06:41:16;;;;;;;3.93;1.47;;;;;;;;;;6612779;26;20014;-81
2024/04/14 06:44:19;;;;;;;5.67;1.50;;;;;;;;;;6608202;26;19997;-82
2024/04/14 06:47:21;;;;;;;4.05;1.38;;;;;;;;;;6620165;26;20006;-82
2024/04/14 06:50:23;;;;;;;5.45;1.63;;;;;;;;;;6582071;26;20041;-82
2024/04/14 06:53:25;;;;;;;5.57;1.50;;;;;;;;;;6615182;26;20020;-82
2024/04/14 06:56:28;;;;;;;2.22;1.60;;;;;;;;;;6599631;26;20005;-82
2024/04/14 06:59:30;;;;;;;2.57;1.57;;;;;;;;;;6608574;26;20384;-82
2024/04/14 07:02:32;;;;;;;2.13;1.50;;;;;;;;;;6605689;26;20020;-82
2024/04/14 07:05:35;;;;;;;3.92;1.60;;;;;;;;;;6606232;26;20830;-81
2024/04/14 07:08:39;;;;;;;2.80;1.57;;;;;;;;;;6608072;26;20016;-82
2024/04/14 07:11:41;;;;;;;4.93;1.70;;;;;;;;;;6608306;26;20032;-81
2024/04/14 07:14:43;;;;;;;4.13;1.65;;;;;;;;;;6608136;26;20466;-81
2024/04/14 07:17:45;;;;;;;4.80;1.90;;;;;;;;;;6599257;26;20485;-80
2024/04/14 07:20:48;;;;;;;6.13;2.10;;;;;;;;;;6594882;26;20020;-82
2024/04/14 07:23:50;;;;;;;4.70;1.83;;;;;;;;;;6606608;26;23719;-82
2024/04/14 07:26:52;;;;;;;5.87;1.87;;;;;;;;;;6571618;26;20381;-82
2024/04/14 07:29:55;;;;;;;4.23;2.80;;;;;;;;;;6611938;26;20019;-82
2024/04/14 07:32:57;;;;;;;4.70;2.07;;;;;;;;;;6586967;26;20528;-82
2024/04/14 07:35:59;;;;;;;3.83;1.85;;;;;;;;;;6616907;26;20020;-82
2024/04/14 07:39:01;;;;;;;8.50;2.30;;;;;;;;;;6610649;26;20055;-82
2024/04/14 07:42:07;;;;;;;5.03;1.80;;;;;;;;;;6606342;26;20447;-82
2024/04/14 07:45:13;;;;;;;5.95;2.00;;;;;;;;;;6599878;26;20017;-82
2024/04/14 07:48:15;;;;;;;5.90;1.90;;;;;;;;;;6599313;26;20019;-83
2024/04/14 07:51:17;;;;;;;5.63;2.05;;;;;;;;;;6611780;26;20779;-83
2024/04/14 07:54:20;;;;;;;4.90;2.67;;;;;;;;;;6611603;26;20487;-83
2024/04/14 07:57:22;;;;;;;4.67;2.00;;;;;;;;;;6630870;26;20456;-83
2024/04/14 08:00:24;;;;;;;6.77;1.90;;;;;;;;;;6629305;26;20348;-84
2024/04/14 08:03:27;;;;;;;20.52;2.58;;;;;;;;;;6612064;26;20514;-84
2024/04/14 08:06:37;;;;;;;4.55;2.50;;;;;;;;;;6606503;26;20747;-84
2024/04/14 08:09:39;;;;;;;5.85;1.85;;;;;;;;;;6601354;26;20055;-83
2024/04/14 08:12:42;;;;;;;3.57;2.37;;;;;;;;;;6604589;26;20006;-83
2024/04/14 08:15:44;;;;;;;6.70;2.30;;;;;;;;;;6601534;26;20689;-83
2024/04/14 08:18:47;;;;;;;4.65;2.35;;;;;;;;;;6598356;26;20013;-83
2024/04/14 08:21:49;;;;;;;6.32;2.15;;;;;;;;;;6607208;26;20019;-83
2024/04/14 08:24:51;;;;;;;5.10;2.15;;;;;;;;;;6568307;26;20048;-83
2024/04/14 08:27:59;;;;;;;5.72;2.15;;;;;;;;;;6610459;26;19997;-82
2024/04/14 08:31:05;;;;;;;6.28;2.38;;;;;;;;;;6613544;26;20010;-82
2024/04/14 08:34:07;;;;;;;6.32;2.22;;;;;;;;;;6620388;26;20013;-82
2024/04/14 08:37:10;;;;;;;7.78;2.30;;;;;;;;;;6595591;26;20606;-82
2024/04/14 08:40:12;;;;;;;4.13;2.10;;;;;;;;;;6600711;26;20241;-82
2024/04/14 08:43:15;;;;;;;3.80;1.63;;;;;;;;;;6606414;26;20009;-83
2024/04/14 08:46:19;;;;;;;4.40;2.50;;;;;;;;;;6594396;26;20418;-84
2024/04/14 08:49:23;;;;;;;5.60;2.47;;;;;;;;;;6613486;26;20013;-84
2024/04/14 08:52:31;;;;;;;5.90;2.03;;;;;;;;;;6600778;26;20350;-83
2024/04/14 08:55:37;;;;;;;5.45;2.28;;;;;;;;;;6618726;26;20005;-85
2024/04/14 08:58:42;;;;;;;6.05;1.90;;;;;;;;;;6609945;26;20013;-84
2024/04/14 09:01:45;;;;;;;5.47;2.50;;;;;;;;;;6613097;26;20023;-83
2024/04/14 09:04:49;;;;;;;6.53;2.28;;;;;;;;;;6610033;26;20006;-85
2024/04/14 09:07:56;;;;;;;5.25;2.20;;;;;;;;;;6597252;26;20027;-84
2024/04/14 09:10:59;;;;;;;4.75;2.22;;;;;;;;;;6588540;26;20455;-84
2024/04/14 09:14:02;;;;;;;7.03;2.25;;;;;;;;;;6590733;26;20000;-83
2024/04/14 09:17:04;;;;;;;4.57;2.33;;;;;;;;;;6606933;26;20088;-84
2024/04/14 09:20:08;;;;;;;7.65;2.58;;;;;;;;;;6608037;26;20290;-84
2024/04/14 09:23:10;;;;;;;4.13;2.35;;;;;;;;;;6603388;26;20019;-84
2024/04/14 09:26:13;;;;;;;4.28;2.50;;;;;;;;;;6605119;26;20442;-84
2024/04/14 09:29:15;;;;;;;5.43;2.50;;;;;;;;;;6600296;26;20542;-84
2024/04/14 09:32:19;;;;;;;3.97;2.40;;;;;;;;;;6593359;26;20762;-84
2024/04/14 09:35:22;;;;;;;6.53;2.55;;;;;;;;;;6601361;26;20001;-84
2024/04/14 09:38:25;;;;;;;5.40;2.42;;;;;;;;;;6607511;26;20056;-84
2024/04/14 09:41:27;;;;;;;7.15;2.92;;;;;;;;;;6603288;26;20018;-84
2024/04/14 09:44:31;;;;;;;9.40;2.72;;;;;;;;;;6615748;26;20001;-83
2024/04/14 09:47:37;;;;;;;7.78;2.80;;;;;;;;;;6604870;26;20013;-84
2024/04/14 09:50:44;;;;;;;3.42;1.92;;;;;;;;;;6610499;26;20501;-84
2024/04/14 09:53:48;;;;;;;4.57;2.08;;;;;;;;;;6601676;26;20013;-83
2024/04/14 09:56:50;;;;;;;6.72;2.60;;;;;;;;;;6605568;26;20017;-85
2024/04/14 09:59:56;;;;;;;4.38;2.35;;;;;;;;;;6614231;26;20011;-84
2024/04/14 10:03:02;;;;;;;7.47;2.25;;;;;;;;;;6596015;26;20054;-84
2024/04/14 10:06:06;;;;;;;4.80;2.20;;;;;;;;;;6609322;26;20000;-85
2024/04/14 10:09:11;;;;;;;8.52;2.05;;;;;;;;;;6599070;26;20017;-84
2024/04/14 10:12:15;;;;;;;2.80;1.80;;;;;;;;;;6612133;26;20482;-83
2024/04/14 10:15:19;;;;;;;3.53;1.50;;;;;;;;;;6609064;26;20076;-84
2024/04/14 10:18:21;;;;;;;6.05;1.77;;;;;;;;;;6587662;26;20013;-84
2024/04/14 10:21:23;;;;;;;4.90;1.83;;;;;;;;;;6606671;26;20013;-85
2024/04/14 10:24:26;;;;;;;5.63;2.20;;;;;;;;;;6604464;26;20342;-84
2024/04/14 10:27:34;;;;;;;3.58;1.80;;;;;;;;;;6605292;26;20005;-85
2024/04/14 10:30:36;;;;;;;4.80;2.10;;;;;;;;;;6606571;26;20033;-84
2024/04/14 10:33:39;;;;;;;5.55;2.40;;;;;;;;;;6627202;26;20012;-85
2024/04/14 10:36:42;;;;;;;3.45;2.10;;;;;;;;;;6632431;26;20012;-84
2024/04/14 10:39:44;;;;;;;10.50;5.15;;;;;;;;;;6606941;26;20022;-78
2024/04/14 10:42:47;;;;;;;5.05;2.10;;;;;;;;;;6609372;26;20008;-79
2024/04/14 10:45:49;;;;;;;5.72;3.03;;;;;;;;;;6595083;26;20381;-79
2024/04/14 10:48:51;;;;;;;3.88;2.00;;;;;;;;;;6606284;26;20049;-79
2024/04/14 10:51:54;;;;;;;5.18;2.15;;;;;;;;;;6605091;26;20084;-78
2024/04/14 10:54:57;;;;;;;2.55;1.88;;;;;;;;;;6597431;26;20454;-84
2024/04/14 10:57:59;;;;;;;;;;;;;;;;;;6601992;26;20016;-84
2024/04/14 11:01:02;;;;;;;3.80;2.10;;;;;;;;;;6613375;26;19926;-83
2024/04/14 11:04:05;;;;;;;5.03;2.40;;;;;;;;;;6609213;26;20453;-83
2024/04/14 11:07:09;;;;;;;3.45;2.08;;;;;;;;;;6605060;26;20027;-83
2024/04/14 11:10:12;;;;;;;5.72;2.40;;;;;;;;;;6600328;26;20013;-83
2024/04/14 11:13:16;;;;;;;4.78;2.20;;;;;;;;;;6610597;26;20057;-83
2024/04/14 11:16:19;;;;;;;5.22;1.98;;;;;;;;;;6599879;26;20570;-83
2024/04/14 11:19:21;;;;;;;;;;;;;;;;;;6615960;26;20002;-84
2024/04/14 11:22:23;;;;;;;4.13;2.53;;;;;;;;;;6604958;26;20307;-83
2024/04/14 11:25:25;;;;;;;6.38;3.10;;;;;;;;;;6615299;26;20001;-83
2024/04/14 11:28:28;;;;;;;4.03;3.10;;;;;;;;;;6641334;26;20055;-83
2024/04/14 11:31:31;;;;;;;5.90;2.72;;;;;;;;;;6615930;26;20059;-83
2024/04/14 11:34:33;;;;;;;3.70;2.33;;;;;;;;;;6610067;26;20005;-84
2024/04/14 11:37:38;;;;;;;3.63;2.33;;;;;;;;;;6607159;26;20017;-84
2024/04/14 11:40:40;;;;;;;5.05;2.60;;;;;;;;;;6603606;26;20020;-82
2024/04/14 11:43:42;;;;;;;5.82;2.65;;;;;;;;;;6618528;26;20005;-79
2024/04/14 11:46:44;;;;;;;4.65;2.42;;;;;;;;;;6603737;26;20079;-83
2024/04/14 11:49:46;;;;;;;4.63;3.20;;;;;;;;;;6601848;26;20010;-81
2024/04/14 11:52:49;;;;;;;3.58;2.80;;;;;;;;;;6613311;26;20002;-82
2024/04/14 11:55:51;;;;;;;6.05;2.90;;;;;;;;;;6615326;26;19997;-81
2024/04/14 11:58:53;;;;;;;5.80;2.58;;;;;;;;;;6623632;26;20346;-81
2024/04/14 12:01:56;;;;;;;4.20;2.53;;;;;;;;;;6615312;26;20005;-81
2024/04/14 12:04:58;;;;;;;3.95;2.35;;;;;;;;;;6609293;26;20466;-81
2024/04/14 12:08:01;;;;;;;3.17;2.30;;;;;;;;;;6616348;26;20074;-82
2024/04/14 12:11:03;;;;;;;4.95;2.38;;;;;;;;;;6612342;26;20016;-81
2024/04/14 12:14:05;;;;;;;3.22;2.30;;;;;;;;;;6615599;26;19997;-81
2024/04/14 12:17:07;;;;;;;4.93;2.13;;;;;;;;;;6600036;26;20020;-81
2024/04/14 12:20:10;;;;;;;4.95;2.70;;;;;;;;;;6602297;26;20009;-80
2024/04/14 12:23:16;;;;;;;5.15;2.85;;;;;;;;;;6616322;26;20009;-81
2024/04/14 12:26:19;;;;;;;3.38;2.60;;;;;;;;;;6604307;26;20138;-81
2024/04/14 12:29:21;;;;;;;5.65;2.55;;;;;;;;;;6622965;26;20019;-81
2024/04/14 12:32:24;;;;;;;3.67;2.67;;;;;;;;;;6610616;26;20017;-81
2024/04/14 12:35:26;;;;;;;6.10;2.75;;;;;;;;;;6616776;26;20002;-81
2024/04/14 12:38:28;;;;;;;4.22;2.20;;;;;;;;;;6610146;26;20096;-81
2024/04/14 12:41:30;;;;;;;3.33;2.00;;;;;;;;;;6610326;26;20352;-81
2024/04/14 12:44:33;;;;;;;3.28;2.65;;;;;;;;;;6604372;26;20009;-81
2024/04/14 12:47:35;;;;;;;3.33;2.28;;;;;;;;;;6609850;26;20102;-81
2024/04/14 12:50:37;;;;;;;2.83;2.13;;;;;;;;;;6621798;26;20009;-81
2024/04/14 12:53:47;;;;;;;3.88;1.90;;;;;;;;;;6606833;26;20060;-81
2024/04/14 12:56:49;;;;;;;4.25;2.20;;;;;;;;;;6622743;26;20020;-81
2024/04/14 12:59:52;;;;;;;3.97;2.05;;;;;;;;;;6610457;26;20016;-81
2024/04/14 13:02:54;;;;;;;3.58;1.85;;;;;;;;;;6602190;26;20006;-81
2024/04/14 13:05:57;;;;;;;5.10;2.30;;;;;;;;;;6620403;26;20015;-81
2024/04/14 13:09:03;;;;;;;2.60;2.28;;;;;;;;;;6578397;26;20004;-81
2024/04/14 13:12:05;;;;;;;2.97;1.92;;;;;;;;;;6617284;26;20083;-81
2024/04/14 13:15:12;;;;;;;3.47;1.70;;;;;;;;;;6617184;26;20052;-82
2024/04/14 13:18:14;;;;;;;2.00;1.80;;;;;;;;;;6592579;26;20384;-81
2024/04/14 13:21:17;;;;;;;5.10;2.03;;;;;;;;;;6613573;26;20005;-81
2024/04/14 13:24:19;;;;;;;;;;;;;;;;;;6616705;26;20005;-81
2024/04/14 13:27:21;;;;;;;3.20;1.85;;;;;;;;;;6605152;26;19974;-81
2024/04/14 13:30:24;;;;;;;3.40;1.70;;;;;;;;;;6616822;26;20023;-80
2024/04/14 13:33:26;;;;;;;4.55;2.00;;;;;;;;;;6606617;26;20012;-81
2024/04/14 13:36:29;;;;;;;4.50;1.63;;;;;;;;;;6617434;26;20022;-79
2024/04/14 13:39:31;;;;;;;4.07;1.67;;;;;;;;;;6607148;26;20023;-80
2024/04/14 13:42:34;;;;;;;2.83;1.58;;;;;;;;;;6618702;26;20009;-81
2024/04/14 13:45:36;;;;;;;2.53;1.60;;;;;;;;;;6608650;26;20020;-82
2024/04/14 13:48:41;;;;;;;4.60;1.75;;;;;;;;;;6597509;26;20422;-82
2024/04/14 13:51:43;;;;;;;4.43;1.50;;;;;;;;;;6575788;26;20015;-81
2024/04/14 13:54:45;;;;;;;3.90;1.60;;;;;;;;;;6604850;26;20002;-81
2024/04/14 13:57:47;;;;;;;4.95;1.83;;;;;;;;;;6610119;26;20005;-81
2024/04/14 14:00:50;;;;;;;3.42;1.75;;;;;;;;;;6595691;26;20037;-80
2024/04/14 14:03:52;;;;;;;1.90;1.67;;;;;;;;;;6596691;26;20001;-83
2024/04/14 14:06:54;;;;;;;5.13;1.75;;;;;;;;;;6606961;26;20017;-84
2024/04/14 14:09:57;;;;;;;3.88;1.45;;;;;;;;;;6611543;26;20056;-83
2024/04/14 14:13:00;;;;;;;2.85;1.25;;;;;;;;;;6613983;26;20037;-83
2024/04/14 14:16:04;;;;;;;2.20;1.40;;;;;;;;;;6609065;26;20006;-84
2024/04/14 14:19:06;;;;;;;3.67;1.60;;;;;;;;;;6611858;26;20001;-83
2024/04/14 14:22:09;;;;;;;4.40;2.15;;;;;;;;;;6605010;26;20105;-83
2024/04/14 14:25:11;;;;;;;;;;;;;;;;;;6611903;26;20013;-82
2024/04/14 14:28:14;;;;;;;2.88;1.48;;;;;;;;;;6613499;26;19926;-84
2024/04/14 14:31:17;;;;;;;4.00;1.48;;;;;;;;;;6610333;26;20351;-84
2024/04/14 14:37:40;;;;;;;2.45;1.65;;;;;;;;;;6617445;26;20175;-83
2024/04/14 14:40:42;;;;;;;3.72;1.52;;;;;;;;;;6608312;26;20032;-82
2024/04/14 14:43:45;;;;;;;4.22;1.70;;;;;;;;;;6615760;26;20037;-83
2024/04/14 14:46:47;;;;;;;3.53;1.73;;;;;;;;;;6610965;26;20091;-82
2024/04/14 14:49:49;;;;;;;3.65;1.40;;;;;;;;;;6602776;26;20086;-81
2024/04/14 14:52:51;;;;;;;3.15;1.80;;;;;;;;;;6612413;26;20491;-81
2024/04/14 14:55:54;;;;;;;4.10;2.15;;;;;;;;;;6631655;26;20016;-81
2024/04/14 14:58:56;;;;;;;5.28;1.60;;;;;;;;;;6592713;26;20476;-81
2024/04/14 15:01:58;;;;;;;3.20;1.73;;;;;;;;;;6604963;26;20021;-81
2024/04/14 15:05:00;;;;;;;4.88;2.20;;;;;;;;;;6599118;26;20016;-79
2024/04/14 15:08:04;;;;;;;4.00;1.95;;;;;;;;;;6610052;26;20016;-80
2024/04/14 15:11:15;;;;;;;;;;;;;;;;;;6598348;26;20006;-81
2024/04/14 15:14:17;;;;;;;3.40;2.03;;;;;;;;;;6585264;26;20922;-81
2024/04/14 15:17:19;;;;;;;3.28;1.60;;;;;;;;;;6597678;26;20054;-80
2024/04/14 15:20:21;;;;;;;3.28;1.70;;;;;;;;;;6624889;26;20006;-80
2024/04/14 15:23:25;;;;;;;4.47;1.60;;;;;;;;;;6601161;26;20082;-81
2024/04/14 15:26:27;;;;;;;2.10;1.27;;;;;;;;;;6631851;26;20019;-80
2024/04/14 15:29:30;;;;;;;4.38;1.40;;;;;;;;;;6609525;26;20020;-80
2024/04/14 15:32:32;;;;;;;3.97;1.40;;;;;;;;;;6605350;26;21852;-83
2024/04/14 15:35:34;;;;;;;4.05;2.00;;;;;;;;;;6580672;26;20013;-83
2024/04/14 15:38:38;;;;;;;4.93;1.35;;;;;;;;;;6611902;26;20020;-82
2024/04/14 15:41:41;;;;;;;3.28;1.27;;;;;;;;;;6609236;26;20020;-83
2024/04/14 15:44:43;;;;;;;2.88;1.70;;;;;;;;;;6619585;26;20037;-82
2024/04/14 15:47:46;;;;;;;3.67;1.60;;;;;;;;;;6601918;26;20021;-82
2024/04/14 15:50:59;;;;;;;2.47;1.55;;;;;;;;;;6609860;26;20013;-82
2024/04/14 15:54:15;;;;;;;2.05;1.48;;;;;;;;;;6618739;26;20060;-82
2024/04/14 15:57:18;;;;;;;3.28;1.80;;;;;;;;;;6614290;26;20421;-83
2024/04/14 16:00:29;;;;;;;7.72;2.70;;;;;;;;;;6605745;26;19998;-82
2024/04/14 16:03:32;;;;;;;5.68;2.50;;;;;;;;;;6601419;26;20001;-81
2024/04/14 16:06:36;;;;;;;4.07;2.03;;;;;;;;;;6606260;26;20005;-82
2024/04/14 16:09:38;;;;;;;2.22;1.50;;;;;;;;;;6607669;26;20009;-82
2024/04/14 16:12:40;;;;;;;5.78;1.60;;;;;;;;;;6607519;26;20078;-82
2024/04/14 16:15:43;;;;;;;3.20;1.63;;;;;;;;;;6607944;26;20015;-84
2024/04/14 16:18:45;;;;;;;3.13;1.88;;;;;;;;;;6599604;26;20024;-82
2024/04/14 16:21:48;;;;;;;5.05;1.55;;;;;;;;;;6609404;26;20081;-82
2024/04/14 16:24:50;;;;;;;4.18;1.33;;;;;;;;;;6608501;26;20014;-82
2024/04/14 16:27:52;;;;;;;5.72;2.47;;;;;;;;;;6606209;26;20032;-80
2024/04/14 16:30:55;;;;;;;2.83;1.80;;;;;;;;;;6609856;26;20028;-81
2024/04/14 16:33:59;;;;;;;2.03;1.20;;;;;;;;;;6603793;26;20425;-81
2024/04/14 16:37:01;;;;;;;3.90;1.73;;;;;;;;;;6627765;26;20005;-81
2024/04/14 16:40:04;;;;;;;5.70;2.10;;;;;;;;;;6614543;26;20005;-82
2024/04/14 16:43:06;;;;;;;3.65;1.75;;;;;;;;;;6636104;26;20059;-80
2024/04/14 16:46:09;;;;;;;5.82;2.42;;;;;;;;;;6600329;26;20529;-80
2024/04/14 16:49:11;;;;;;;4.15;2.15;;;;;;;;;;6597196;26;20005;-81
2024/04/14 16:52:13;;;;;;;2.25;1.70;;;;;;;;;;6632471;26;20005;-82
2024/04/14 16:55:16;;;;;;;3.45;1.70;;;;;;;;;;6625642;26;20012;-84
2024/04/14 16:58:20;;;;;;;3.92;2.80;;;;;;;;;;6616309;26;20382;-83
2024/04/14 17:01:23;;;;;;;4.18;2.00;;;;;;;;;;6613116;26;19997;-84
2024/04/14 17:04:29;;;;;;;2.92;1.70;;;;;;;;;;6612157;26;20045;-84
2024/04/14 17:07:40;;;;;;;4.68;1.80;;;;;;;;;;6628689;26;20024;-85
2024/04/14 17:10:47;;;;;;;3.03;1.63;;;;;;;;;;6640627;26;19997;-85
2024/04/14 17:13:49;;;;;;;4.88;1.60;;;;;;;;;;6620325;26;20032;-84
2024/04/14 17:16:58;;;;;;;4.32;1.80;;;;;;;;;;6620579;26;20025;-82
2024/04/14 17:20:01;;;;;;;2.00;1.70;;;;;;;;;;6595184;26;20056;-80
2024/04/14 17:23:04;;;;;;;2.80;1.80;;;;;;;;;;6622942;26;20139;-80
2024/04/14 17:26:10;;;;;;;3.28;1.60;;;;;;;;;;6610869;26;20079;-82
2024/04/14 17:29:16;;;;;;;4.72;1.50;;;;;;;;;;6580083;26;20079;-82
2024/04/14 17:32:22;;;;;;;4.60;1.90;;;;;;;;;;6587552;26;20313;-81
2024/04/14 17:35:28;;;;;;;5.10;1.70;;;;;;;;;;6616893;26;20020;-80
2024/04/14 17:38:33;;;;;;;2.40;1.77;;;;;;;;;;6597589;26;20468;-80
2024/04/14 17:41:35;;;;;;;4.25;2.17;;;;;;;;;;6612226;26;20220;-80
2024/04/14 17:44:38;;;;;;;5.45;2.00;;;;;;;;;;6626227;26;20007;-80
2024/04/14 17:47:41;;;;;;;3.75;2.05;;;;;;;;;;6608869;26;20024;-79
2024/04/14 17:50:44;;;;;;;4.47;2.70;;;;;;;;;;6607703;26;20005;-79
2024/04/14 17:53:47;;;;;;;4.95;2.30;;;;;;;;;;6608072;26;20001;-80
2024/04/14 17:56:50;;;;;;;3.45;1.90;;;;;;;;;;6607903;26;20001;-79
2024/04/14 17:59:53;;;;;;;4.88;2.10;;;;;;;;;;6597353;26;20020;-80
2024/04/14 18:02:55;;;;;;;3.10;2.08;;;;;;;;;;6597910;26;20002;-79
2024/04/14 18:05:58;;;;;;;4.53;2.20;;;;;;;;;;6596046;26;20018;-79
2024/04/14 18:09:00;;;;;;;4.85;2.05;;;;;;;;;;6604163;26;20021;-79
2024/04/14 18:12:04;;;;;;;5.88;2.47;;;;;;;;;;6582243;26;20016;-79
2024/04/14 18:15:08;;;;;;;3.78;2.15;;;;;;;;;;6592056;26;19998;-79
2024/04/14 18:18:10;;;;;;;4.25;2.50;;;;;;;;;;6600521;26;20005;-79
2024/04/14 18:21:13;;;;;;;5.85;2.13;;;;;;;;;;6575197;26;20605;-79
2024/04/14 18:24:15;;;;;;;4.87;2.43;;;;;;;;;;6602916;26;20735;-80